Time;durP1;ratioP1;P1;durP2;ratioP2;P2;SDS_P1;SDS_P2;PMS_P1;PMS_P2;Temp;Humidity;BMP_temperature;BMP_pressure;BME280_temperature;BME280_humidity;BME280_pressure;Samples;Min_cycle;Max_cycle;Signal;HPM_P1;HPM_P2
2021/12/08 00:01:27;;;;;;;21.35;11.50;;;;;;;2.66;73.65;99784.78;4904692;29;20048;-79
2021/12/08 00:03:53;;;;;;;23.38;11.45;;;;;;;2.73;72.71;99797.78;4907948;29;20054;-77
2021/12/08 00:06:19;;;;;;;24.70;12.05;;;;;;;2.50;73.15;99777.56;4905735;29;20042;-82
2021/12/08 00:08:59;;;;;;;21.10;11.07;;;;;;;2.54;73.05;99780.22;4906629;29;20048;-80
2021/12/08 00:14:10;;;;;;;22.30;11.88;;;;;;;2.73;72.67;99814.03;4908635;29;20075;-78
2021/12/08 00:16:36;;;;;;;23.95;11.95;;;;;;;2.65;73.10;99797.59;4921239;29;20220;-79
2021/12/08 00:19:01;;;;;;;22.10;11.27;;;;;;;2.76;72.86;99820.97;4910771;29;20560;-75
2021/12/08 00:21:28;;;;;;;23.63;11.43;;;;;;;2.75;72.60;99824.38;4908346;29;20063;-80
2021/12/08 00:23:54;;;;;;;19.85;10.05;;;;;;;2.77;72.97;99820.13;4905156;29;20096;-76
2021/12/08 00:26:20;;;;;;;22.42;11.23;;;;;;;2.66;72.38;99804.44;4907085;29;20044;-79
2021/12/08 00:28:46;;;;;;;19.25;10.32;;;;;;;2.51;71.76;99823.81;4906397;29;20040;-78
2021/12/08 00:31:12;;;;;;;24.95;12.38;;;;;;;2.54;72.51;99836.75;4908932;29;20159;-78
2021/12/08 00:33:38;;;;;;;19.90;10.55;;;;;;;2.35;72.50;99821.72;4890656;29;20117;-74
2021/12/08 00:36:09;;;;;;;21.55;11.25;;;;;;;2.52;72.37;99828.13;4907310;29;20040;-77
2021/12/08 00:38:35;;;;;;;20.63;10.77;;;;;;;2.21;72.00;99764.88;4906666;29;20044;-79
2021/12/08 00:41:01;;;;;;;18.35;10.23;;;;;;;2.48;71.46;99818.59;4906995;29;20048;-79
2021/12/08 00:43:27;;;;;;;17.10;9.73;;;;;;;2.54;71.80;99835.84;4903932;29;20087;-76
2021/12/08 00:45:53;;;;;;;21.02;10.85;;;;;;;2.47;72.21;99816.88;4908475;29;20175;-77
2021/12/08 00:48:21;;;;;;;20.20;9.65;;;;;;;2.59;72.04;99836.84;4907429;29;20589;-82
2021/12/08 00:50:47;;;;;;;18.55;9.93;;;;;;;2.53;71.91;99813.59;4910317;29;20170;-76
2021/12/08 00:53:14;;;;;;;20.17;9.73;;;;;;;2.62;70.92;99841.22;4910608;29;20048;-77
2021/12/08 00:55:40;;;;;;;15.93;9.13;;;;;;;2.49;71.08;99824.63;4910825;29;20108;-78
2021/12/08 00:58:06;;;;;;;17.05;8.82;;;;;;;2.55;71.10;99842.75;4891629;29;20099;-76
2021/12/08 01:00:41;;;;;;;16.10;9.45;;;;;;;2.17;70.47;99816.97;4890763;29;20063;-77
2021/12/08 01:03:09;;;;;;;15.85;8.80;;;;;;;2.34;71.05;99843.94;4909499;29;20063;-77
2021/12/08 01:05:42;;;;;;;14.45;9.38;;;;;;;2.38;70.66;99852.63;4909608;29;20498;-81
2021/12/08 01:08:08;;;;;;;20.30;9.45;;;;;;;2.17;70.62;99843.53;4912116;29;20047;-79
2021/12/08 01:10:37;;;;;;;18.48;9.63;;;;;;;2.29;70.82;99860.97;4910205;29;20059;-77
2021/12/08 01:13:06;;;;;;;15.70;9.05;;;;;;;2.09;71.39;99833.06;4924098;29;20044;-76
2021/12/08 01:15:33;;;;;;;18.77;8.80;;;;;;;2.21;70.46;99858.16;4912794;29;20048;-78
2021/12/08 01:17:58;;;;;;;17.15;9.07;;;;;;;2.21;70.23;99872.72;4910483;29;20040;-78
2021/12/08 01:20:25;;;;;;;15.93;9.02;;;;;;;2.03;70.08;99843.16;4922161;29;20139;-79
2021/12/08 01:22:51;;;;;;;17.00;8.40;;;;;;;2.20;70.34;99873.53;4900037;29;20063;-75
2021/12/08 01:25:17;;;;;;;15.50;8.93;;;;;;;2.10;70.30;99854.47;4919961;29;20032;-76
2021/12/08 01:27:43;;;;;;;16.73;9.38;;;;;;;2.10;70.30;99855.31;4925150;29;20503;-75
2021/12/08 01:30:09;;;;;;;16.33;9.27;;;;;;;2.18;70.54;99870.94;4914905;29;20040;-77
2021/12/08 01:32:36;;;;;;;16.92;9.27;;;;;;;2.16;69.97;99874.28;4896117;29;20060;-80
2021/12/08 01:35:04;;;;;;;15.48;8.18;;;;;;;2.02;69.64;99866.22;4891889;29;20185;-76
2021/12/08 01:37:32;;;;;;;16.67;8.77;;;;;;;2.05;70.04;99869.75;4907224;29;20063;-79
2021/12/08 01:39:58;;;;;;;16.02;8.35;;;;;;;2.05;69.99;99876.56;4897684;29;20047;-78
2021/12/08 01:42:41;;;;;;;17.77;8.52;;;;;;;2.03;69.47;99879.09;4913893;29;20126;-77
2021/12/08 01:47:52;;;;;;;15.48;8.60;;;;;;;1.71;69.63;99865.41;4908260;29;20063;-79
2021/12/08 01:50:18;;;;;;;15.55;8.77;;;;;;;1.80;69.62;99879.34;4895048;29;20052;-80
2021/12/08 01:52:44;;;;;;;17.10;8.48;;;;;;;1.93;69.72;99887.38;4908822;29;20071;-76
2021/12/08 01:55:10;;;;;;;16.60;8.10;;;;;;;1.95;69.32;99890.84;4909694;29;20127;-79
2021/12/08 01:57:39;;;;;;;15.73;8.43;;;;;;;1.88;68.61;99883.81;4904001;29;20268;-81
2021/12/08 02:00:14;;;;;;;16.52;8.63;;;;;;;1.84;69.35;99884.56;4906135;29;20048;-77
2021/12/08 02:02:40;;;;;;;14.95;8.32;;;;;;;1.75;69.47;99862.09;4893874;29;20082;-79
2021/12/08 02:05:07;;;;;;;17.40;8.90;;;;;;;1.84;69.13;99879.44;4910276;29;20051;-78
2021/12/08 02:07:33;;;;;;;14.10;8.02;;;;;;;1.77;68.97;99894.66;4889760;29;20103;-77
2021/12/08 02:09:59;;;;;;;13.60;7.75;;;;;;;1.78;68.93;99903.22;4906877;29;20095;-78
2021/12/08 02:12:25;;;;;;;14.80;8.25;;;;;;;1.61;68.55;99893.34;4906070;29;20422;-81
2021/12/08 02:14:51;;;;;;;14.98;7.97;;;;;;;1.66;68.47;99903.72;4908554;29;20147;-75
2021/12/08 02:17:17;;;;;;;13.07;7.65;;;;;;;1.68;68.96;99907.22;4909289;29;20050;-75
2021/12/08 02:19:43;;;;;;;14.70;8.48;;;;;;;1.60;69.02;99907.00;4896392;29;20040;-79
2021/12/08 02:22:09;;;;;;;15.98;9.35;;;;;;;1.47;68.97;99895.50;4909875;29;20076;-79
2021/12/08 02:24:35;;;;;;;16.33;9.23;;;;;;;1.36;68.52;99873.81;4905118;29;20048;-80
2021/12/08 02:27:01;;;;;;;15.77;8.48;;;;;;;1.58;68.10;99905.22;4906638;29;20276;-79
2021/12/08 02:29:41;;;;;;;16.52;9.18;;;;;;;1.56;68.22;99910.28;4894510;29;20569;-79
2021/12/08 02:46:34;;;;;;;15.88;8.88;;;;;;;1.54;68.12;99913.63;4906536;29;20059;-80
2021/12/08 02:46:49;;;;;;;17.08;9.02;;;;;;;1.38;68.49;99933.72;4868404;29;20103;-78
2021/12/08 02:50:07;;;;;;;16.70;8.98;;;;;;;0.78;68.12;99819.09;4907792;29;20130;-77
2021/12/08 02:52:49;;;;;;;18.98;9.38;;;;;;;1.48;67.97;99960.50;4905780;29;20060;-79
2021/12/08 02:55:42;;;;;;;15.77;8.55;;;;;;;1.01;67.71;99865.91;4889957;29;20054;-80
2021/12/08 02:58:08;;;;;;;17.48;8.73;;;;;;;0.98;67.98;99865.84;4907857;29;20074;-81
2021/12/08 03:04:29;;;;;;;16.42;8.70;;;;;;;0.43;67.80;99817.13;4899383;29;20044;-79
2021/12/08 03:07:44;;;;;;;17.00;8.40;;;;;;;0.06;67.33;99751.97;4909111;29;20095;-77
2021/12/08 03:10:22;;;;;;;17.80;9.40;;;;;;;0.27;67.43;99798.72;4910171;29;20048;-81
2021/12/08 03:12:48;;;;;;;15.25;8.93;;;;;;;0.57;67.31;99838.94;4907743;29;20520;-78
2021/12/08 03:15:15;;;;;;;16.08;9.00;;;;;;;1.07;67.66;99913.94;4908658;29;20204;-76
2021/12/08 03:17:41;;;;;;;16.60;8.93;;;;;;;1.14;67.08;99944.94;4906315;29;20074;-77
2021/12/08 03:20:14;;;;;;;15.68;8.63;;;;;;;1.19;67.53;99948.53;4909529;29;20076;-77
2021/12/08 03:22:44;;;;;;;17.25;9.00;;;;;;;1.20;67.31;99960.53;4910119;29;20079;-76
2021/12/08 03:25:14;;;;;;;18.20;9.70;;;;;;;1.05;67.21;99949.75;4910407;29;20108;-78
2021/12/08 03:27:48;;;;;;;18.48;9.35;;;;;;;1.05;66.33;99966.03;4909515;29;20517;-79
2021/12/08 03:30:20;;;;;;;19.35;10.05;;;;;;;0.85;67.33;99955.13;4911114;29;20103;-77
2021/12/08 03:32:46;;;;;;;18.52;9.75;;;;;;;0.88;67.22;99973.16;4895130;29;20064;-75
2021/12/08 03:35:15;;;;;;;18.58;9.90;;;;;;;0.81;66.67;99955.81;4917914;29;20047;-77
2021/12/08 03:37:45;;;;;;;17.88;9.35;;;;;;;0.86;66.68;99966.25;4909520;29;20604;-77
2021/12/08 03:40:14;;;;;;;20.30;9.88;;;;;;;0.85;66.71;99972.19;4925042;28;20056;-75
2021/12/08 03:42:42;;;;;;;17.42;9.18;;;;;;;0.82;67.45;99965.25;4923280;29;20482;-75
2021/12/08 03:45:19;;;;;;;18.67;10.55;;;;;;;0.95;67.29;99993.88;4924085;29;20072;-75
2021/12/08 03:47:48;;;;;;;18.40;10.23;;;;;;;0.80;66.94;99976.28;4896145;29;20040;-75
2021/12/08 03:50:16;;;;;;;21.67;9.60;;;;;;;0.73;66.46;99983.75;4921516;29;20103;-77
2021/12/08 03:52:43;;;;;;;18.40;10.18;;;;;;;0.88;67.06;100003.06;4918378;29;20100;-74
2021/12/08 03:55:14;;;;;;;20.52;10.45;;;;;;;0.70;67.34;99972.53;4918638;29;20140;-77
2021/12/08 03:57:40;;;;;;;18.98;9.88;;;;;;;0.79;66.82;99997.59;4911941;29;20047;-75
2021/12/08 04:00:12;;;;;;;17.95;9.90;;;;;;;0.88;66.57;99992.81;4914497;29;20052;-74
2021/12/08 04:02:39;;;;;;;18.33;9.77;;;;;;;0.83;66.38;99992.63;4919832;29;20050;-78
2021/12/08 04:05:07;;;;;;;22.13;11.23;;;;;;;0.84;66.96;100006.31;4913129;29;20045;-78
2021/12/08 04:07:36;;;;;;;19.02;10.30;;;;;;;0.83;66.51;100005.44;4921802;29;20028;-74
2021/12/08 04:10:03;;;;;;;22.05;11.05;;;;;;;0.82;66.64;100008.81;4921347;29;20078;-76
2021/12/08 04:12:29;;;;;;;21.73;11.30;;;;;;;0.75;66.51;99997.50;4916192;29;20133;-75
2021/12/08 04:15:01;;;;;;;18.98;10.18;;;;;;;0.72;65.97;99996.53;4907903;29;20139;-76
2021/12/08 04:17:37;;;;;;;20.75;10.80;;;;;;;0.80;66.52;100018.13;4923120;29;20032;-75
2021/12/08 04:20:19;;;;;;;19.50;10.43;;;;;;;0.78;66.37;100021.47;4913322;29;20189;-77
2021/12/08 04:22:49;;;;;;;23.02;10.77;;;;;;;0.58;66.01;99996.91;4919333;29;20048;-76
2021/12/08 04:25:20;;;;;;;23.08;11.15;;;;;;;0.32;65.82;99978.06;4910633;29;20044;-77
2021/12/08 04:27:48;;;;;;;24.43;11.87;;;;;;;0.55;66.23;100032.66;4890369;29;20044;-79
2021/12/08 04:30:23;;;;;;;21.40;11.32;;;;;;;0.51;66.17;100043.63;4911610;29;20387;-79
2021/12/08 04:32:49;;;;;;;21.45;11.13;;;;;;;0.02;65.49;99976.16;4910332;29;20094;-77
2021/12/08 04:35:18;;;;;;;19.38;10.43;;;;;;;0.28;65.70;100036.00;4912279;29;20112;-77
2021/12/08 04:37:49;;;;;;;21.63;10.45;;;;;;;0.15;65.69;100038.88;4904243;29;20094;-78
2021/12/08 04:43:04;;;;;;;21.92;11.15;;;;;;;0.14;65.79;100047.38;4911691;29;20076;-78
2021/12/08 04:45:44;;;;;;;23.58;11.43;;;;;;;0.13;65.57;100055.88;4914601;29;20051;-78
2021/12/08 05:06:50;;;;;;;25.38;11.95;;;;;;;-0.10;65.66;100061.00;4933867;29;20080;-77
2021/12/08 05:09:26;;;;;;;23.65;11.82;;;;;;;0.02;65.89;100073.38;4920988;29;20528;-78
2021/12/08 05:12:01;;;;;;;21.02;10.77;;;;;;;-0.03;65.63;100090.28;4910238;29;20107;-78
2021/12/08 05:14:35;;;;;;;22.63;10.95;;;;;;;-0.14;65.09;100086.41;4908273;29;20103;-79
2021/12/08 05:17:07;;;;;;;24.10;11.63;;;;;;;-0.07;65.86;100075.59;4877543;29;20047;-78
2021/12/08 05:19:34;;;;;;;25.90;12.07;;;;;;;-0.11;66.16;100069.47;4908621;29;20080;-78
2021/12/08 05:22:07;;;;;;;25.60;11.52;;;;;;;-0.25;65.55;100051.06;4896891;29;20482;-79
2021/12/08 05:24:39;;;;;;;28.38;12.13;;;;;;;-0.28;65.54;100032.16;4906820;29;20358;-80
2021/12/08 05:27:07;;;;;;;;;;;;;;;-0.19;65.15;100081.13;4896634;29;20529;-79
2021/12/08 05:29:43;;;;;;;27.00;11.90;;;;;;;-0.37;65.94;100077.03;4909534;29;19946;-75
2021/12/08 05:32:10;;;;;;;27.38;12.25;;;;;;;-0.37;65.38;100078.69;4902608;29;20194;-77
2021/12/08 05:34:37;;;;;;;25.00;11.75;;;;;;;-0.19;65.47;100110.13;4918874;29;20044;-78
2021/12/08 05:37:06;;;;;;;23.25;11.30;;;;;;;-0.34;65.12;100083.94;4905263;29;20039;-78
2021/12/08 05:39:32;;;;;;;25.48;11.40;;;;;;;-0.25;65.68;100103.88;4910728;29;20040;-77
2021/12/08 05:42:04;;;;;;;22.15;10.90;;;;;;;-0.18;64.87;100111.00;4877785;29;20502;-77
2021/12/08 05:44:30;;;;;;;22.90;11.40;;;;;;;-0.31;65.18;100107.94;4892845;29;20047;-77
2021/12/08 05:46:59;;;;;;;23.15;11.23;;;;;;;-0.33;65.62;100122.34;4898214;29;20049;-76
2021/12/08 05:49:25;;;;;;;24.13;10.70;;;;;;;-0.38;65.27;100141.78;4905851;29;20051;-79
2021/12/08 05:51:57;;;;;;;25.48;12.18;;;;;;;-0.47;65.21;100134.59;4909853;29;20051;-77
2021/12/08 05:54:32;;;;;;;23.00;10.68;;;;;;;-0.62;64.54;100139.94;4914596;29;20510;-77
2021/12/08 05:57:02;;;;;;;20.10;10.68;;;;;;;-0.67;64.67;100150.81;4909908;29;20044;-77
2021/12/08 05:59:28;;;;;;;20.65;10.20;;;;;;;-0.86;65.32;100119.31;4912089;29;20083;-78
2021/12/08 06:02:18;;;;;;;20.85;9.57;;;;;;;-0.73;64.14;100130.09;4908719;29;20055;-78
2021/12/08 06:04:45;;;;;;;20.60;9.82;;;;;;;-0.70;64.75;100136.19;4895353;29;20036;-77
2021/12/08 06:07:13;;;;;;;20.65;9.20;;;;;;;-0.76;65.30;100103.59;4910432;29;20131;-78
2021/12/08 06:09:43;;;;;;;20.33;9.80;;;;;;;-0.89;64.57;100092.78;4891549;29;20044;-78
2021/12/08 06:12:10;;;;;;;19.35;9.48;;;;;;;-0.64;64.83;100133.91;4909103;29;20048;-78
2021/12/08 06:14:36;;;;;;;22.38;10.63;;;;;;;-0.59;65.11;100135.78;4909898;29;20060;-77
2021/12/08 06:17:09;;;;;;;22.38;10.25;;;;;;;-0.54;65.21;100150.50;4895581;29;20028;-77
2021/12/08 06:19:40;;;;;;;21.73;10.15;;;;;;;-0.80;64.38;100118.75;4906908;29;20474;-78
2021/12/08 06:22:08;;;;;;;21.98;10.45;;;;;;;-0.59;64.97;100161.34;4898619;29;20333;-77
2021/12/08 06:24:34;;;;;;;22.25;9.98;;;;;;;-0.83;64.32;100145.03;4910466;29;20047;-75
2021/12/08 06:27:00;;;;;;;22.75;11.38;;;;;;;-0.96;65.03;100130.84;4907447;29;20052;-77
2021/12/08 06:29:26;;;;;;;23.88;12.23;;;;;;;-0.89;64.39;100149.00;4922223;29;20530;-79
2021/12/08 06:31:56;;;;;;;25.27;11.50;;;;;;;-0.74;64.54;100169.22;4907731;29;20060;-77
2021/12/08 06:34:23;;;;;;;23.65;11.38;;;;;;;-0.85;64.95;100146.63;4893104;29;20526;-78
2021/12/08 06:37:11;;;;;;;22.80;10.90;;;;;;;-0.82;64.93;100158.69;4909583;29;20112;-78
2021/12/08 06:39:45;;;;;;;25.92;11.23;;;;;;;-0.57;65.11;100192.97;4909115;29;20132;-77
2021/12/08 06:42:15;;;;;;;25.45;11.88;;;;;;;-0.71;63.18;100198.34;4907141;29;20044;-76
2021/12/08 06:44:45;;;;;;;22.77;11.02;;;;;;;-1.13;64.54;100140.34;4896596;29;20120;-77
2021/12/08 06:47:16;;;;;;;25.02;11.65;;;;;;;-0.82;63.93;100189.34;4908065;29;20127;-76
2021/12/08 06:49:45;;;;;;;27.00;10.90;;;;;;;-1.02;64.64;100165.47;4904270;29;20072;-75
2021/12/08 06:52:33;;;;;;;24.42;11.02;;;;;;;-0.65;64.16;100213.06;4908259;29;20051;-76
2021/12/08 06:55:10;;;;;;;23.25;10.77;;;;;;;-0.81;63.76;100191.97;4906458;29;20050;-81
2021/12/08 06:57:46;;;;;;;24.17;9.98;;;;;;;-0.79;64.22;100186.94;4878534;29;20048;-78
2021/12/08 07:00:34;;;;;;;29.70;11.93;;;;;;;-0.68;63.67;100221.47;4903498;29;20110;-77
2021/12/08 07:08:44;;;;;;;26.98;11.50;;;;;;;-0.77;64.14;100231.28;4907537;29;20055;-76
2021/12/08 07:11:16;;;;;;;24.30;11.25;;;;;;;-0.89;63.91;100215.44;4909003;29;20079;-78
2021/12/08 07:13:44;;;;;;;26.73;11.20;;;;;;;-0.82;64.53;100217.47;4904128;29;20032;-76
2021/12/08 07:16:19;;;;;;;29.65;11.52;;;;;;;-0.78;63.97;100209.13;4905018;29;20495;-77
2021/12/08 07:19:23;;;;;;;28.65;12.10;;;;;;;-0.83;64.40;100202.94;4906562;29;20055;-77
2021/12/08 07:21:51;;;;;;;26.33;11.55;;;;;;;-0.82;63.53;100226.00;4907534;29;20044;-77
2021/12/08 07:24:28;;;;;;;25.48;10.93;;;;;;;-1.10;63.25;100183.03;4908424;29;20649;-80
2021/12/08 07:27:00;;;;;;;22.90;10.57;;;;;;;-0.95;63.82;100226.25;4912612;29;20151;-78
2021/12/08 07:29:29;;;;;;;23.33;10.90;;;;;;;-1.06;63.83;100218.97;4907100;29;20044;-79
2021/12/08 07:32:00;;;;;;;23.75;10.20;;;;;;;-0.98;63.69;100238.91;4917921;29;20127;-76
2021/12/08 07:34:27;;;;;;;21.85;9.68;;;;;;;-1.29;63.68;100207.75;4928348;29;20180;-76
2021/12/08 07:37:04;;;;;;;25.85;12.18;;;;;;;-1.08;64.04;100235.06;4924781;29;20146;-76
2021/12/08 07:39:42;;;;;;;24.77;10.65;;;;;;;-1.23;63.73;100225.91;4894053;29;20104;-79
2021/12/08 07:42:24;;;;;;;22.88;10.15;;;;;;;-1.14;63.85;100230.56;4910076;29;20055;-77
2021/12/08 07:44:53;;;;;;;21.10;9.68;;;;;;;-1.29;63.65;100210.28;4893355;29;20048;-76
2021/12/08 07:47:21;;;;;;;25.75;10.40;;;;;;;-1.24;64.12;100256.47;4879555;29;20044;-77
2021/12/08 07:49:59;;;;;;;23.80;10.38;;;;;;;-1.92;63.42;100164.88;4923770;29;20044;-75
2021/12/08 07:52:40;;;;;;;21.38;10.35;;;;;;;-1.33;63.51;100264.59;4907112;29;20192;-76
2021/12/08 07:55:18;;;;;;;23.60;10.93;;;;;;;-1.61;62.94;100231.78;4893002;29;20045;-78
2021/12/08 07:57:49;;;;;;;23.50;10.82;;;;;;;-2.12;63.65;100126.53;4912388;29;20040;-80
2021/12/08 08:00:21;;;;;;;23.17;10.90;;;;;;;-1.74;63.87;100174.19;4890539;29;20048;-79
2021/12/08 08:02:51;;;;;;;26.13;10.82;;;;;;;-1.08;64.17;100255.50;4880310;29;20056;-76
2021/12/08 08:05:18;;;;;;;29.65;11.20;;;;;;;-1.05;63.48;100255.63;4909829;29;20049;-76
2021/12/08 08:07:45;;;;;;;31.65;11.20;;;;;;;-1.14;64.04;100253.53;4910429;29;20045;-80
2021/12/08 08:10:17;;;;;;;25.15;10.70;;;;;;;-1.32;64.19;100215.25;4912319;29;20131;-77
2021/12/08 08:12:48;;;;;;;25.77;11.48;;;;;;;-1.21;64.01;100254.91;4902963;29;20088;-79
2021/12/08 08:15:20;;;;;;;27.42;11.75;;;;;;;-1.28;63.30;100247.78;4908403;29;20044;-75
2021/12/08 08:17:53;;;;;;;21.65;9.65;;;;;;;-1.53;63.30;100204.91;4901769;29;20048;-79
2021/12/08 08:20:29;;;;;;;22.13;10.02;;;;;;;-1.22;63.46;100254.88;4911641;29;20044;-80
2021/12/08 08:23:06;;;;;;;22.88;10.95;;;;;;;-1.21;62.94;100248.94;4899858;29;20222;-78
2021/12/08 08:25:41;;;;;;;23.45;10.70;;;;;;;-1.24;63.44;100259.03;4911284;29;20051;-77
2021/12/08 08:28:25;;;;;;;24.23;10.70;;;;;;;-1.15;63.59;100279.00;4903034;29;20161;-78
2021/12/08 08:31:03;;;;;;;21.90;9.98;;;;;;;-1.22;63.69;100283.84;4897774;29;20055;-80
2021/12/08 08:33:31;;;;;;;24.45;10.18;;;;;;;-1.27;64.13;100263.97;4906892;29;20091;-79
2021/12/08 08:36:04;;;;;;;21.52;10.40;;;;;;;-1.24;63.03;100271.78;4909933;29;20048;-77
2021/12/08 08:38:55;;;;;;;23.88;10.45;;;;;;;-1.26;63.63;100263.19;4914778;29;20055;-77
2021/12/08 08:41:36;;;;;;;25.17;9.63;;;;;;;-1.12;62.98;100276.59;4906830;29;20056;-80
2021/12/08 08:44:09;;;;;;;23.27;10.30;;;;;;;-1.06;62.76;100264.97;4883560;29;20062;-77
2021/12/08 08:46:45;;;;;;;24.00;9.77;;;;;;;-1.00;63.59;100264.41;4910173;29;20585;-78
2021/12/08 08:49:15;;;;;;;21.23;10.13;;;;;;;-1.26;62.51;100246.19;4906748;29;20040;-75
2021/12/08 08:51:47;;;;;;;18.83;8.80;;;;;;;-1.21;62.64;100260.03;4917093;29;20044;-75
2021/12/08 08:54:19;;;;;;;;;;;;;;;-1.23;62.82;100260.78;4915663;29;20512;-76
2021/12/08 08:57:14;;;;;;;25.65;9.52;;;;;;;-1.16;62.99;100261.91;4894162;29;19923;-75
2021/12/08 08:59:45;;;;;;;24.80;9.13;;;;;;;-1.42;63.16;100213.06;4911771;29;20071;-78
2021/12/08 09:02:20;;;;;;;22.38;10.15;;;;;;;-1.04;62.49;100249.72;4895216;29;20099;-78
2021/12/08 09:04:54;;;;;;;22.38;9.73;;;;;;;-1.03;62.44;100264.25;4928724;29;20052;-77
2021/12/08 09:07:26;;;;;;;25.92;10.18;;;;;;;-1.16;63.30;100228.72;4912072;29;20075;-77
2021/12/08 09:09:57;;;;;;;22.77;10.43;;;;;;;-0.88;62.57;100271.72;4909467;29;20099;-77
2021/12/08 09:12:25;;;;;;;26.23;10.93;;;;;;;-0.86;62.22;100269.25;4913373;29;20123;-77
2021/12/08 09:15:18;;;;;;;24.13;10.52;;;;;;;-0.94;62.91;100249.31;4909785;29;20046;-74
2021/12/08 09:18:00;;;;;;;24.02;9.98;;;;;;;-0.67;62.82;100274.34;4918994;29;20090;-77
2021/12/08 09:20:57;;;;;;;24.48;9.65;;;;;;;-0.81;60.36;100265.22;4916359;29;20049;-76
2021/12/08 09:23:39;;;;;;;22.05;9.20;;;;;;;-0.97;62.07;100264.50;4896940;29;20139;-78
2021/12/08 09:26:16;;;;;;;21.67;10.02;;;;;;;-1.04;62.29;100252.28;4909575;29;20067;-76
2021/12/08 09:28:49;;;;;;;23.15;9.82;;;;;;;-0.95;63.09;100273.13;4895124;29;20047;-74
2021/12/08 09:31:26;;;;;;;20.98;9.68;;;;;;;-0.87;62.23;100275.16;4890729;29;20060;-77
2021/12/08 09:34:09;;;;;;;23.38;9.75;;;;;;;-0.86;62.23;100266.69;4904854;29;20041;-75
2021/12/08 09:36:42;;;;;;;24.20;9.57;;;;;;;-0.85;62.53;100250.53;4909768;29;20232;-75
2021/12/08 09:39:45;;;;;;;24.63;10.55;;;;;;;-0.99;62.58;100225.22;4912184;29;20059;-76
2021/12/08 09:42:21;;;;;;;25.17;10.75;;;;;;;-0.77;62.24;100267.06;4893154;29;20052;-77
2021/12/08 09:44:54;;;;;;;23.58;10.38;;;;;;;-0.88;62.16;100261.47;4895610;29;20044;-76
2021/12/08 09:47:20;;;;;;;24.85;10.48;;;;;;;-0.93;62.88;100255.31;4909832;29;20098;-78
2021/12/08 09:49:49;;;;;;;24.63;10.13;;;;;;;-0.96;62.58;100245.81;4906294;29;20055;-78
2021/12/08 09:52:19;;;;;;;21.92;10.20;;;;;;;-0.76;61.89;100264.59;4911810;29;20164;-76
2021/12/08 09:54:45;;;;;;;22.83;9.95;;;;;;;-0.80;62.13;100264.41;4907638;29;20151;-77
2021/12/08 09:57:13;;;;;;;23.80;10.80;;;;;;;-0.75;62.27;100260.34;4896667;29;20055;-76
2021/12/08 09:59:46;;;;;;;26.23;10.70;;;;;;;-0.76;62.02;100267.16;4876129;29;20506;-77
2021/12/08 10:02:18;;;;;;;24.65;10.20;;;;;;;-0.71;61.77;100264.81;4909563;29;20506;-77
2021/12/08 10:04:44;;;;;;;20.42;9.80;;;;;;;-1.01;61.91;100200.44;4912715;29;20621;-75
2021/12/08 10:07:12;;;;;;;23.60;9.75;;;;;;;-0.79;62.53;100238.91;4911860;29;20043;-79
2021/12/08 10:09:39;;;;;;;22.65;9.77;;;;;;;-0.69;62.20;100270.00;4893932;29;21408;-74
2021/12/08 10:12:05;;;;;;;25.70;10.68;;;;;;;-0.78;61.69;100260.25;4879379;29;20095;-75
2021/12/08 10:14:31;;;;;;;24.65;10.40;;;;;;;-0.73;61.79;100263.00;4909138;29;20044;-75
2021/12/08 10:17:00;;;;;;;23.98;10.93;;;;;;;-0.84;62.60;100265.94;4907847;29;20047;-73
2021/12/08 10:19:26;;;;;;;25.13;10.80;;;;;;;-0.79;62.17;100284.91;4906973;29;20052;-78
2021/12/08 10:21:52;;;;;;;27.00;11.15;;;;;;;-0.85;61.51;100284.63;4877055;29;20044;-78
2021/12/08 10:24:28;;;;;;;27.00;11.48;;;;;;;-0.82;62.21;100281.34;4894532;29;20043;-76
2021/12/08 10:27:02;;;;;;;22.33;9.52;;;;;;;-0.93;62.31;100270.66;4910688;29;20573;-75
2021/12/08 10:29:30;;;;;;;24.20;10.07;;;;;;;-1.04;61.92;100293.16;4909497;29;20048;-75
2021/12/08 10:31:59;;;;;;;21.67;9.73;;;;;;;-1.30;61.81;100282.59;4915246;29;20099;-77
2021/12/08 10:34:36;;;;;;;24.73;9.73;;;;;;;-1.39;61.74;100271.94;4915278;29;20764;-76
2021/12/08 10:37:07;;;;;;;25.02;10.02;;;;;;;-1.29;62.24;100281.81;4914159;29;20067;-78
2021/12/08 10:39:46;;;;;;;25.38;10.57;;;;;;;-1.13;61.74;100303.81;4908456;29;20108;-75
2021/12/08 10:42:19;;;;;;;23.88;11.02;;;;;;;-1.19;62.38;100298.44;4909485;29;20051;-76
2021/12/08 10:44:50;;;;;;;23.17;9.30;;;;;;;-1.27;61.59;100295.53;4909937;29;20056;-77
2021/12/08 10:47:28;;;;;;;22.10;9.55;;;;;;;-1.30;62.15;100300.47;4910183;29;20165;-75
2021/12/08 10:55:22;;;;;;;23.10;9.23;;;;;;;-1.45;62.12;100282.75;4906120;29;20044;-78
2021/12/08 10:57:55;;;;;;;22.65;10.27;;;;;;;-1.38;61.94;100305.22;4905948;29;20063;-78
2021/12/08 11:00:30;;;;;;;26.25;9.98;;;;;;;-1.44;61.94;100307.47;4910102;29;20047;-76
2021/12/08 11:02:58;;;;;;;21.15;10.00;;;;;;;-1.37;62.45;100311.19;4906072;29;20055;-78
2021/12/08 11:05:24;;;;;;;22.42;10.30;;;;;;;-1.36;62.11;100312.94;4908186;29;20044;-77
2021/12/08 11:08:10;;;;;;;23.45;10.38;;;;;;;-1.53;61.83;100301.91;4922022;29;20055;-77
2021/12/08 11:10:58;;;;;;;24.55;10.38;;;;;;;-1.48;62.03;100309.81;4906915;29;20056;-77
2021/12/08 11:13:30;;;;;;;22.00;9.90;;;;;;;-1.42;62.09;100323.75;4911788;29;20052;-77
2021/12/08 11:16:04;;;;;;;23.33;9.63;;;;;;;-1.49;61.90;100318.28;4909357;29;20052;-76
2021/12/08 11:18:31;;;;;;;22.48;9.20;;;;;;;-1.53;61.93;100323.25;4907808;29;20103;-76
2021/12/08 11:21:02;;;;;;;28.55;10.35;;;;;;;-1.70;62.21;100312.19;4922880;29;20044;-76
2021/12/08 11:26:14;;;;;;;25.60;10.60;;;;;;;-1.76;62.18;100314.44;4909522;29;20048;-77
2021/12/08 11:28:41;;;;;;;24.23;10.05;;;;;;;-1.77;62.41;100314.38;4908872;29;20107;-75
2021/12/08 11:31:15;;;;;;;20.42;9.00;;;;;;;-1.79;62.44;100304.09;4890788;29;20048;-77
2021/12/08 11:33:48;;;;;;;25.15;9.48;;;;;;;-1.89;61.80;100307.00;4909563;29;20052;-75
2021/12/08 11:36:25;;;;;;;20.95;9.35;;;;;;;-1.97;62.49;100312.59;4907249;29;20480;-76
2021/12/08 11:38:51;;;;;;;26.23;9.70;;;;;;;-2.01;62.21;100312.34;4873504;29;20080;-76
2021/12/08 11:41:41;;;;;;;23.00;10.15;;;;;;;-2.08;62.40;100310.28;4904425;29;20063;-77
2021/12/08 11:44:17;;;;;;;23.15;9.48;;;;;;;-2.03;62.81;100321.59;4907237;29;20044;-77
2021/12/08 11:46:45;;;;;;;22.88;9.45;;;;;;;-1.98;63.11;100328.69;4907963;29;20044;-77
2021/12/08 11:49:12;;;;;;;24.92;9.77;;;;;;;-2.23;62.23;100301.06;4907933;29;20048;-78
2021/12/08 11:51:43;;;;;;;25.63;9.82;;;;;;;-2.02;62.74;100321.69;4908296;29;20051;-77
2021/12/08 11:54:42;;;;;;;21.77;9.52;;;;;;;-2.01;63.11;100318.34;4909124;29;20059;-78
2021/12/08 11:57:12;;;;;;;25.35;10.20;;;;;;;-2.07;62.66;100312.94;4907309;29;20044;-78
2021/12/08 11:59:49;;;;;;;26.63;10.93;;;;;;;-2.07;63.12;100332.44;4909854;29;20036;-75
2021/12/08 12:02:18;;;;;;;22.60;10.15;;;;;;;-2.09;63.21;100334.03;4913040;29;20142;-78
2021/12/08 12:04:44;;;;;;;25.08;10.02;;;;;;;-2.02;62.83;100331.91;4910028;29;20092;-76
2021/12/08 12:07:11;;;;;;;24.60;10.65;;;;;;;-2.08;62.75;100326.50;4907874;29;20067;-76
2021/12/08 12:09:39;;;;;;;23.40;9.70;;;;;;;-2.27;62.86;100312.81;4910248;29;20037;-77
2021/12/08 12:12:06;;;;;;;27.20;11.10;;;;;;;-2.10;63.24;100343.38;4899773;29;20059;-76
2021/12/08 12:14:32;;;;;;;23.70;10.43;;;;;;;-2.12;62.91;100350.06;4911143;29;20044;-78
2021/12/08 12:16:58;;;;;;;23.42;10.48;;;;;;;-2.17;62.84;100338.75;4909384;29;20095;-77
2021/12/08 12:19:25;;;;;;;24.25;11.30;;;;;;;-2.03;62.83;100350.56;4921433;29;20044;-78
2021/12/08 12:22:19;;;;;;;23.55;10.45;;;;;;;-2.13;62.99;100328.81;4899445;29;20067;-77
2021/12/08 12:25:15;;;;;;;25.05;10.35;;;;;;;-2.07;62.26;100347.75;4911720;29;20234;-79
2021/12/08 12:27:55;;;;;;;26.65;9.65;;;;;;;-2.25;62.72;100340.91;4892034;29;20113;-76
2021/12/08 12:30:41;;;;;;;24.00;9.48;;;;;;;-2.19;63.13;100361.66;4921499;29;20634;-74
2021/12/08 12:33:24;;;;;;;25.50;10.75;;;;;;;-2.17;62.70;100367.69;4906497;29;20056;-77
2021/12/08 12:35:55;;;;;;;28.73;11.10;;;;;;;-2.38;63.23;100341.09;4907466;29;20036;-76
2021/12/08 12:38:36;;;;;;;27.10;10.65;;;;;;;-2.46;62.31;100358.53;4909843;29;20047;-77